Terminal Aerodrome Forecast
Issued by NWS

Home | Current Version | Previous Version | Text Only | Print | Product List | Glossary On
Versions: 1 2 3 4 5 6 7 8 9 10 11 12 13 14 15 16 17 18 19 20 21 22 23 24 25 26 27 28 29 30 31 32
000
FTUS43 KDLH 251700
TAFBRD
TAF
KBRD 251738Z 2518/2618 08007KT 2SM -RA BR SCT007 OVC030
      TEMPO 2518/2520 4SM -RA BR OVC030
     FM252000 36006KT 4SM -RA BR OVC012
     FM260100 VRB04KT 3SM BR VCSH OVC015
     FM260600 VRB05KT 2SM BR OVC011
     FM261400 VRB05KT P6SM OVC030=

USA.gov is the U.S. government's official web portal to all federal, state and local government web resources and services.